Time;durP1;ratioP1;P1;durP2;ratioP2;P2;SDS_P1;SDS_P2;PMS_P1;PMS_P2;Temp;Humidity;BMP_temperature;BMP_pressure;BME280_temperature;BME280_humidity;BME280_pressure;Samples;Min_cycle;Max_cycle;Signal;HPM_P1;HPM_P2
2023/09/11 00:01:21;;;;;;;25.23;21.25;;;;;;;-147.65;100.00;57646.63;10454540;28;20045;-76
2023/09/11 00:06:22;;;;;;;28.95;20.55;;;;;;;-147.65;100.00;57646.63;10462134;28;20409;-77
2023/09/11 00:11:22;;;;;;;28.23;24.40;;;;;;;-147.65;100.00;57646.63;10453090;28;20067;-77
2023/09/11 00:16:23;;;;;;;27.23;21.98;;;;;;;-147.65;100.00;57646.63;10447982;28;20041;-77
2023/09/11 00:21:23;;;;;;;24.42;19.73;;;;;;;-147.65;100.00;57646.63;10453328;28;20457;-77
2023/09/11 00:26:24;;;;;;;35.00;23.38;;;;;;;-147.65;100.00;57646.63;10476830;28;20044;-76
2023/09/11 00:31:24;;;;;;;34.58;22.65;;;;;;;-147.65;100.00;57646.63;10460019;28;20128;-78
2023/09/11 00:36:25;;;;;;;32.35;24.25;;;;;;;-147.65;100.00;57646.63;10466834;28;20131;-76
2023/09/11 00:41:25;;;;;;;23.15;20.63;;;;;;;-147.65;100.00;57646.63;10449750;28;20155;-77
2023/09/11 00:46:26;;;;;;;25.92;22.08;;;;;;;-147.65;100.00;57646.63;10455392;28;20037;-77
2023/09/11 00:51:27;;;;;;;22.55;20.15;;;;;;;-147.65;100.00;57646.63;10456586;28;20495;-77
2023/09/11 00:56:27;;;;;;;31.45;21.77;;;;;;;-147.65;100.00;57646.63;10497433;28;20044;-77
2023/09/11 01:01:28;;;;;;;27.10;24.17;;;;;;;-147.65;100.00;57646.63;10453873;28;20074;-77
2023/09/11 01:06:28;;;;;;;27.20;24.35;;;;;;;-147.65;100.00;57646.63;10476995;28;20033;-77
2023/09/11 01:11:29;;;;;;;33.17;25.38;;;;;;;-147.65;100.00;57646.63;10486657;28;20041;-77
2023/09/11 01:17:09;;;;;;;26.77;23.67;;;;;;;-147.65;100.00;57646.63;10493632;28;20373;-77
2023/09/11 01:22:25;;;;;;;30.52;24.75;;;;;;;-147.65;100.00;57646.63;10458234;28;20077;-77
2023/09/11 01:27:34;;;;;;;30.95;23.80;;;;;;;-147.65;100.00;57646.63;10442703;28;20041;-76
2023/09/11 01:32:34;;;;;;;28.25;23.95;;;;;;;-147.65;100.00;57646.63;10436333;28;20057;-76
2023/09/11 01:37:35;;;;;;;34.28;25.00;;;;;;;-147.65;100.00;57646.63;10436486;28;20042;-76
2023/09/11 01:42:46;;;;;;;34.53;24.17;;;;;;;-147.65;100.00;57646.63;10468131;28;20025;-76
2023/09/11 01:47:47;;;;;;;33.53;25.63;;;;;;;-147.65;100.00;57646.63;10453508;28;20038;-76
2023/09/11 01:52:49;;;;;;;37.67;27.93;;;;;;;-147.65;100.00;57646.63;10475689;28;20037;-77
2023/09/11 01:57:49;;;;;;;31.05;27.20;;;;;;;-147.65;100.00;57646.63;10452811;28;20042;-77
2023/09/11 02:02:54;;;;;;;35.00;26.60;;;;;;;-147.65;100.00;57646.63;10452899;28;20048;-77
2023/09/11 02:07:56;;;;;;;35.78;28.35;;;;;;;-147.65;100.00;57646.63;10494410;28;20068;-77
2023/09/11 02:12:56;;;;;;;33.70;28.08;;;;;;;-147.65;100.00;57646.63;10458875;28;20068;-77
2023/09/11 02:17:57;;;;;;;41.25;30.88;;;;;;;-147.65;100.00;57646.63;10473177;28;20119;-77
2023/09/11 02:22:57;;;;;;;41.15;29.17;;;;;;;-147.65;100.00;57646.63;10492569;28;20093;-77
2023/09/11 02:27:58;;;;;;;40.72;30.30;;;;;;;-147.65;100.00;57646.63;10460004;28;20089;-77
2023/09/11 02:32:58;;;;;;;35.88;28.85;;;;;;;-147.65;100.00;57646.63;10472724;28;20069;-77
2023/09/11 02:37:59;;;;;;;37.58;26.48;;;;;;;-147.65;100.00;57646.63;10491854;28;20086;-76
2023/09/11 02:42:59;;;;;;;35.42;26.98;;;;;;;-147.65;100.00;57646.63;10471547;28;20108;-77
2023/09/11 02:48:00;;;;;;;37.38;29.20;;;;;;;-147.65;100.00;57646.63;10466069;28;20613;-76
2023/09/11 02:53:01;;;;;;;35.30;31.17;;;;;;;-147.65;100.00;57646.63;10469305;28;20431;-76
2023/09/11 02:58:04;;;;;;;37.88;29.70;;;;;;;-147.65;100.00;57646.63;10476288;28;20036;-77
2023/09/11 03:03:05;;;;;;;37.08;27.45;;;;;;;-147.65;100.00;57646.63;10468856;28;20040;-77
2023/09/11 03:08:06;;;;;;;31.63;26.45;;;;;;;-147.65;100.00;57646.63;10455911;28;20042;-77
2023/09/11 03:13:06;;;;;;;37.13;27.13;;;;;;;-147.65;100.00;57646.63;10459602;28;20595;-77
2023/09/11 03:18:07;;;;;;;35.50;28.55;;;;;;;-147.65;100.00;57646.63;10463607;28;20084;-77
2023/09/11 03:23:07;;;;;;;33.25;25.80;;;;;;;-147.65;100.00;57646.63;10455602;28;20179;-77
2023/09/11 03:28:08;;;;;;;38.88;28.10;;;;;;;-147.65;100.00;57646.63;10463476;28;20060;-77
2023/09/11 03:33:08;;;;;;;46.75;30.35;;;;;;;-147.65;100.00;57646.63;10454934;28;20081;-80
2023/09/11 03:38:10;;;;;;;43.92;30.90;;;;;;;-147.65;100.00;57646.63;10462505;28;20040;-77
2023/09/11 03:43:10;;;;;;;36.90;30.00;;;;;;;-147.65;100.00;57646.63;10500656;28;20051;-77
2023/09/11 03:48:11;;;;;;;41.38;32.42;;;;;;;-147.65;100.00;57646.63;10464731;28;20403;-77
2023/09/11 03:53:11;;;;;;;48.22;33.78;;;;;;;-147.65;100.00;57646.63;10485383;28;20061;-77
2023/09/11 03:58:12;;;;;;;33.53;28.70;;;;;;;-147.65;100.00;57646.63;10439762;28;20500;-77
2023/09/11 04:03:13;;;;;;;37.95;28.25;;;;;;;-147.65;100.00;57646.63;10438604;28;20037;-77
2023/09/11 04:08:14;;;;;;;30.57;24.30;;;;;;;-147.65;100.00;57646.63;10448144;28;20068;-75
2023/09/11 04:13:14;;;;;;;40.38;28.13;;;;;;;-147.65;100.00;57646.63;10483543;28;20123;-74
2023/09/11 04:18:15;;;;;;;45.50;34.85;;;;;;;-147.65;100.00;57646.63;10477383;28;20049;-75
2023/09/11 04:23:15;;;;;;;37.22;29.83;;;;;;;-147.65;100.00;57646.63;10441136;27;20038;-75
2023/09/11 04:28:16;;;;;;;33.70;27.58;;;;;;;-147.65;100.00;57646.63;10437153;28;20078;-74
2023/09/11 04:33:17;;;;;;;44.42;27.10;;;;;;;-147.65;100.00;57646.63;10424515;28;20045;-74
2023/09/11 04:38:18;;;;;;;43.77;28.83;;;;;;;-147.65;100.00;57646.63;10407963;28;20128;-75
2023/09/11 04:43:18;;;;;;;39.88;31.38;;;;;;;-147.65;100.00;57646.63;10372058;28;20041;-75
2023/09/11 04:48:19;;;;;;;43.63;33.60;;;;;;;-147.65;100.00;57646.63;10426131;28;20120;-77
2023/09/11 04:53:19;;;;;;;38.50;30.50;;;;;;;-147.65;100.00;57646.63;10392669;28;20058;-76
2023/09/11 04:58:20;;;;;;;46.15;33.25;;;;;;;-147.65;100.00;57646.63;10407327;28;20045;-76
2023/09/11 05:03:20;;;;;;;40.67;31.23;;;;;;;-147.65;100.00;57646.63;10434766;28;20051;-76
2023/09/11 05:08:21;;;;;;;41.25;30.88;;;;;;;-147.65;100.00;57646.63;10422588;28;20067;-76
2023/09/11 05:13:21;;;;;;;37.08;28.42;;;;;;;-147.65;100.00;57646.63;10440093;28;20049;-77
2023/09/11 05:18:22;;;;;;;43.95;29.02;;;;;;;-147.65;100.00;57646.63;10376371;28;20045;-76
2023/09/11 05:23:24;;;;;;;34.35;29.10;;;;;;;-147.65;100.00;57646.63;10427863;28;20436;-76
2023/09/11 05:28:24;;;;;;;39.10;30.80;;;;;;;-147.65;100.00;57646.63;10433835;28;20045;-76
2023/09/11 05:33:25;;;;;;;39.80;34.95;;;;;;;-147.65;100.00;57646.63;10410812;28;20432;-74
2023/09/11 05:38:26;;;;;;;42.10;32.90;;;;;;;-147.65;100.00;57646.63;10422515;28;20049;-76
2023/09/11 05:43:27;;;;;;;45.63;33.80;;;;;;;-147.65;100.00;57646.63;10463401;28;20326;-77
2023/09/11 05:48:28;;;;;;;41.97;31.02;;;;;;;-147.65;100.00;57646.63;10472182;28;20095;-77
2023/09/11 05:53:29;;;;;;;35.35;27.00;;;;;;;-147.65;100.00;57646.63;10446312;28;20106;-77
2023/09/11 05:58:29;;;;;;;35.17;30.40;;;;;;;-147.65;100.00;57646.63;10481707;28;20067;-77
2023/09/11 06:03:31;;;;;;;37.47;30.35;;;;;;;-147.65;100.00;57646.63;10441821;28;20062;-79
2023/09/11 06:08:32;;;;;;;21.80;19.50;;;;;;;-147.65;100.00;57646.63;10446404;28;20051;-77
2023/09/11 06:13:35;;;;;;;19.63;15.63;;;;;;;-147.65;100.00;57646.63;10447349;28;20044;-79
2023/09/11 06:18:36;;;;;;;14.77;11.15;;;;;;;-147.65;100.00;57646.63;10447837;28;20029;-80
2023/09/11 06:23:37;;;;;;;12.80;11.13;;;;;;;-147.65;100.00;57646.63;10462920;28;20071;-80
2023/09/11 06:28:37;;;;;;;16.10;9.80;;;;;;;-147.65;100.00;57646.63;10440896;28;20064;-78
2023/09/11 06:33:38;;;;;;;12.73;8.17;;;;;;;-147.65;100.00;57646.63;10443992;28;20060;-75
2023/09/11 06:38:38;;;;;;;14.23;9.37;;;;;;;-147.65;100.00;57646.63;10435274;28;20063;-75
2023/09/11 06:43:39;;;;;;;12.33;8.77;;;;;;;-147.65;100.00;57646.63;10420156;28;20033;-76
2023/09/11 06:48:39;;;;;;;17.23;11.67;;;;;;;-147.65;100.00;57646.63;10406122;28;20076;-75
2023/09/11 06:53:40;;;;;;;14.50;7.83;;;;;;;-147.65;100.00;57646.63;10394117;28;20501;-78
2023/09/11 06:58:42;;;;;;;11.90;9.03;;;;;;;-147.65;100.00;57646.63;10418837;28;20500;-78
2023/09/11 07:03:42;;;;;;;13.55;7.30;;;;;;;-147.65;100.00;57646.63;10433626;28;20041;-77
2023/09/11 07:08:43;;;;;;;15.63;9.10;;;;;;;-147.65;100.00;57646.63;10444949;28;20431;-78
2023/09/11 07:13:43;;;;;;;11.50;8.30;;;;;;;-147.65;100.00;57646.63;10459863;28;20090;-77
2023/09/11 07:18:44;;;;;;;21.58;9.10;;;;;;;-147.65;100.00;57646.63;10449257;28;20048;-78
2023/09/11 07:23:44;;;;;;;13.10;7.60;;;;;;;-147.65;100.00;57646.63;10456459;28;20041;-76
2023/09/11 07:29:02;;;;;;;13.43;8.90;;;;;;;-147.65;100.00;57646.63;10405925;28;20038;-78
2023/09/11 07:34:03;;;;;;;16.90;7.85;;;;;;;-147.65;100.00;57646.63;10420160;28;20040;-76
2023/09/11 07:39:03;;;;;;;;;;;;;;;-147.65;100.00;57646.63;10437947;28;20409;-78
2023/09/11 07:44:04;;;;;;;11.50;7.10;;;;;;;-147.65;100.00;57646.63;10450685;28;19931;-76
2023/09/11 07:49:04;;;;;;;;;;;;;;;-147.65;100.00;57646.63;10451921;28;20145;-78
2023/09/11 07:54:05;;;;;;;14.70;6.67;;;;;;;-147.65;100.00;57646.63;10468311;28;19924;-75
2023/09/11 07:59:05;;;;;;;;;;;;;;;-147.65;100.00;57646.63;10456574;28;20392;-76
2023/09/11 08:04:05;;;;;;;19.20;8.70;;;;;;;-147.65;100.00;57646.63;10469725;28;19930;-76
2023/09/11 08:09:06;;;;;;;;;;;;;;;-147.65;100.00;57646.63;10462086;28;20041;-76
2023/09/11 08:14:07;;;;;;;14.73;7.47;;;;;;;-147.65;100.00;57646.63;10458922;28;19943;-77
2023/09/11 08:19:07;;;;;;;9.98;6.97;;;;;;;-147.65;100.00;57646.63;10447305;28;20041;-76
2023/09/11 08:24:08;;;;;;;10.43;6.85;;;;;;;-147.65;100.00;57646.63;10437681;28;20037;-77
2023/09/11 08:29:11;;;;;;;15.85;7.40;;;;;;;-147.65;100.00;57646.63;10493227;28;20055;-77
2023/09/11 08:34:12;;;;;;;10.90;7.18;;;;;;;-147.65;100.00;57646.63;10464957;28;20032;-77
2023/09/11 08:39:13;;;;;;;16.52;7.28;;;;;;;-147.65;100.00;57646.63;10457280;28;20087;-77
2023/09/11 08:44:13;;;;;;;16.77;8.48;;;;;;;-147.65;100.00;57646.63;10458125;28;20040;-77
2023/09/11 08:49:14;;;;;;;14.88;6.85;;;;;;;-147.65;100.00;57646.63;10463674;28;20477;-77
2023/09/11 08:54:14;;;;;;;16.65;7.82;;;;;;;-147.65;100.00;57646.63;10446596;28;20090;-77
2023/09/11 08:59:15;;;;;;;13.80;8.10;;;;;;;-147.65;100.00;57646.63;10463728;28;20482;-77
2023/09/11 09:04:16;;;;;;;10.95;6.65;;;;;;;-147.65;100.00;57646.63;10447431;28;20032;-77
2023/09/11 09:09:18;;;;;;;17.17;8.35;;;;;;;-147.65;100.00;57646.63;10444349;28;20044;-77
2023/09/11 09:14:18;;;;;;;19.17;9.13;;;;;;;-147.65;100.00;57646.63;10462082;28;20060;-77
2023/09/11 09:19:19;;;;;;;16.98;8.05;;;;;;;-147.65;100.00;57646.63;10431158;28;20400;-77
2023/09/11 09:24:20;;;;;;;;;;;;;;;-147.65;100.00;57646.63;10457738;28;20036;-77
2023/09/11 09:29:21;;;;;;;14.43;8.88;;;;;;;-147.65;100.00;57646.63;10458295;28;20364;-78
2023/09/11 09:34:21;;;;;;;21.45;8.65;;;;;;;-147.65;100.00;57646.63;10462320;28;20127;-79
2023/09/11 09:39:24;;;;;;;17.15;9.38;;;;;;;-147.65;100.00;57646.63;10471656;28;20036;-78
2023/09/11 09:44:31;;;;;;;16.02;8.80;;;;;;;-147.65;100.00;57646.63;10463311;28;20044;-78
2023/09/11 09:49:52;;;;;;;14.88;9.88;;;;;;;-147.65;100.00;57646.63;10430776;28;20047;-78
2023/09/11 09:54:55;;;;;;;16.63;9.93;;;;;;;-147.65;100.00;57646.63;10495536;28;20032;-77
2023/09/11 09:59:57;;;;;;;17.92;9.55;;;;;;;-147.65;100.00;57646.63;10442033;28;20061;-78
2023/09/11 10:05:04;;;;;;;20.73;9.25;;;;;;;-147.65;100.00;57646.63;10452934;28;20468;-78
2023/09/11 10:10:27;;;;;;;19.27;9.52;;;;;;;-147.65;100.00;57646.63;10428244;28;20045;-78
2023/09/11 10:15:28;;;;;;;13.43;10.10;;;;;;;-147.65;100.00;57646.63;10428215;28;20055;-78
2023/09/11 10:20:28;;;;;;;24.52;10.13;;;;;;;-147.65;100.00;57646.63;10460794;28;20068;-78
2023/09/11 10:25:31;;;;;;;14.10;9.00;;;;;;;-147.65;100.00;57646.63;10460499;28;20503;-78
2023/09/11 10:31:01;;;;;;;15.98;9.68;;;;;;;-147.65;100.00;57646.63;10461229;28;20033;-77
2023/09/11 10:36:22;;;;;;;20.58;9.13;;;;;;;-147.65;100.00;57646.63;10461416;28;20131;-76
2023/09/11 10:41:23;;;;;;;14.43;10.57;;;;;;;-147.65;100.00;57646.63;10485371;28;20040;-77
2023/09/11 10:46:23;;;;;;;17.60;9.70;;;;;;;-147.65;100.00;57646.63;10502215;28;20040;-77
2023/09/11 10:51:24;;;;;;;13.23;8.60;;;;;;;-147.65;100.00;57646.63;10436219;28;20527;-77
2023/09/11 10:56:24;;;;;;;17.13;10.20;;;;;;;-147.65;100.00;57646.63;10417811;28;20037;-77
2023/09/11 11:01:25;;;;;;;16.23;8.63;;;;;;;-147.65;100.00;57646.63;10477492;28;20500;-77
2023/09/11 11:06:25;;;;;;;13.38;8.18;;;;;;;-147.65;100.00;57646.63;10443847;28;20033;-77
2023/09/11 11:11:27;;;;;;;15.38;8.35;;;;;;;-147.65;100.00;57646.63;10485267;28;20076;-78
2023/09/11 11:16:28;;;;;;;10.07;7.10;;;;;;;-147.65;100.00;57646.63;10450077;28;20489;-77
2023/09/11 11:21:37;;;;;;;10.23;6.63;;;;;;;-147.65;100.00;57646.63;10443669;28;20044;-77
2023/09/11 11:26:40;;;;;;;9.95;7.75;;;;;;;-147.65;100.00;57646.63;10443750;28;20116;-77
2023/09/11 11:31:40;;;;;;;11.38;7.45;;;;;;;-147.65;100.00;57646.63;10444200;28;20091;-77
2023/09/11 11:36:41;;;;;;;11.20;6.15;;;;;;;-147.65;100.00;57646.63;10454234;28;20594;-77
2023/09/11 11:41:41;;;;;;;16.15;11.02;;;;;;;-147.65;100.00;57646.63;10458421;28;20029;-78
2023/09/11 11:46:42;;;;;;;9.48;6.82;;;;;;;-147.65;100.00;57646.63;10448912;28;20041;-81
2023/09/11 11:51:44;;;;;;;8.82;6.00;;;;;;;-147.65;100.00;57646.63;10459457;28;20087;-82
2023/09/11 11:56:44;;;;;;;11.15;6.75;;;;;;;-147.65;100.00;57646.63;10451498;28;20032;-79
2023/09/11 12:01:45;;;;;;;9.00;6.75;;;;;;;-147.65;100.00;57646.63;10456987;28;20408;-77
2023/09/11 12:06:45;;;;;;;11.55;7.03;;;;;;;-147.65;100.00;57646.63;10427870;28;20043;-76
2023/09/11 12:11:46;;;;;;;10.80;6.35;;;;;;;-147.65;100.00;57646.63;10413983;28;20521;-77
2023/09/11 12:16:47;;;;;;;9.63;6.57;;;;;;;-147.65;100.00;57646.63;10442044;28;20056;-77
2023/09/11 12:21:47;;;;;;;12.15;7.88;;;;;;;-147.65;100.00;57646.63;10461298;28;20039;-81
2023/09/11 12:26:48;;;;;;;11.50;6.32;;;;;;;-147.65;100.00;57646.63;10441918;28;20060;-78
2023/09/11 12:31:48;;;;;;;8.30;6.13;;;;;;;-147.65;100.00;57646.63;10458491;28;20045;-82
2023/09/11 12:36:49;;;;;;;14.80;9.55;;;;;;;-147.65;100.00;57646.63;10495871;28;20116;-79
2023/09/11 12:41:49;;;;;;;14.77;6.85;;;;;;;-147.65;100.00;57646.63;10468104;28;20073;-77
2023/09/11 12:46:50;;;;;;;15.50;10.45;;;;;;;-147.65;100.00;57646.63;10492007;28;20035;-77
2023/09/11 12:51:50;;;;;;;16.30;8.20;;;;;;;-147.65;100.00;57646.63;10503301;28;20039;-78
2023/09/11 12:56:51;;;;;;;11.10;6.05;;;;;;;-147.65;100.00;57646.63;10458741;28;20036;-77
2023/09/11 13:01:53;;;;;;;13.73;10.30;;;;;;;-147.65;100.00;57646.63;10444371;28;20041;-79
2023/09/11 13:06:54;;;;;;;11.90;7.25;;;;;;;-147.65;100.00;57646.63;10452689;28;20075;-80
2023/09/11 13:11:54;;;;;;;13.63;6.80;;;;;;;-147.65;100.00;57646.63;10473486;28;20052;-81
2023/09/11 13:16:55;;;;;;;17.65;7.10;;;;;;;-147.65;100.00;57646.63;10429648;28;20061;-79
2023/09/11 13:21:56;;;;;;;7.80;6.97;;;;;;;-147.65;100.00;57646.63;10413740;28;20091;-80
2023/09/11 13:26:56;;;;;;;12.20;6.47;;;;;;;-147.65;100.00;57646.63;10407964;28;20041;-79
2023/09/11 13:31:57;;;;;;;11.93;7.75;;;;;;;-147.65;100.00;57646.63;10374428;28;20054;-78
2023/09/11 13:36:59;;;;;;;12.43;6.78;;;;;;;-147.65;100.00;57646.63;10443526;28;20123;-78
2023/09/11 13:42:00;;;;;;;11.38;7.57;;;;;;;-147.65;100.00;57646.63;10408576;28;20052;-79
2023/09/11 13:47:00;;;;;;;12.27;8.57;;;;;;;-147.65;100.00;57646.63;10407957;28;20044;-80
2023/09/11 13:52:01;;;;;;;15.30;7.03;;;;;;;-147.65;100.00;57646.63;10435774;28;20037;-78
2023/09/11 13:57:01;;;;;;;15.57;6.28;;;;;;;-147.65;100.00;57646.63;10436995;28;20037;-78
2023/09/11 14:02:02;;;;;;;13.55;7.35;;;;;;;-147.65;100.00;57646.63;10443538;28;20045;-77
2023/09/11 14:07:03;;;;;;;27.92;9.85;;;;;;;-147.65;100.00;57646.63;10446976;28;20045;-78
2023/09/11 14:12:03;;;;;;;17.10;8.65;;;;;;;-147.65;100.00;57646.63;10480800;28;20468;-80
2023/09/11 14:17:05;;;;;;;17.55;7.45;;;;;;;-147.65;100.00;57646.63;10443584;28;20139;-77
2023/09/11 14:22:06;;;;;;;12.20;7.70;;;;;;;-147.65;100.00;57646.63;10431498;28;20037;-79
2023/09/11 14:27:09;;;;;;;13.02;6.68;;;;;;;-147.65;100.00;57646.63;10443218;28;20078;-78
2023/09/11 14:32:10;;;;;;;12.70;7.80;;;;;;;-147.65;100.00;57646.63;10478669;28;20511;-78
2023/09/11 14:37:11;;;;;;;13.45;8.57;;;;;;;-147.65;100.00;57646.63;10437541;28;20044;-76
2023/09/11 14:42:11;;;;;;;13.50;7.05;;;;;;;-147.65;100.00;57646.63;10450219;28;20064;-76
2023/09/11 14:47:12;;;;;;;;;;;;;;;-147.65;100.00;57646.63;10446135;28;20403;-76
2023/09/11 14:52:12;;;;;;;12.57;7.03;;;;;;;-147.65;100.00;57646.63;10443947;28;19921;-76
2023/09/11 14:57:14;;;;;;;;;;;;;;;-147.65;100.00;57646.63;10444369;28;20040;-76
2023/09/11 15:02:14;;;;;;;10.63;6.68;;;;;;;-147.65;100.00;57646.63;10461330;28;20412;-76
2023/09/11 15:07:14;;;;;;;;;;;;;;;-147.65;100.00;57646.63;10457751;28;20048;-77
2023/09/11 15:12:15;;;;;;;14.20;8.13;;;;;;;-147.65;100.00;57646.63;10455956;28;20341;-76
2023/09/11 15:17:16;;;;;;;15.68;8.65;;;;;;;-147.65;100.00;57646.63;10459043;28;20120;-77
2023/09/11 15:22:16;;;;;;;14.33;7.93;;;;;;;-147.65;100.00;57646.63;10454672;28;20168;-75
2023/09/11 15:27:17;;;;;;;14.33;9.57;;;;;;;-147.65;100.00;57646.63;10467665;28;20033;-76
2023/09/11 15:32:19;;;;;;;13.47;8.63;;;;;;;-147.65;100.00;57646.63;10475377;28;20056;-76
2023/09/11 15:37:19;;;;;;;15.32;7.63;;;;;;;-147.65;100.00;57646.63;10462327;28;20041;-75
2023/09/11 15:42:20;;;;;;;17.67;8.07;;;;;;;-147.65;100.00;57646.63;10460904;28;20045;-76
2023/09/11 15:47:21;;;;;;;11.37;6.63;;;;;;;-147.65;100.00;57646.63;10467119;28;20131;-77
2023/09/11 15:52:21;;;;;;;10.73;6.73;;;;;;;-147.65;100.00;57646.63;10465667;28;20044;-77
2023/09/11 15:57:22;;;;;;;13.50;7.00;;;;;;;-147.65;100.00;57646.63;10466189;28;20048;-76
2023/09/11 16:02:22;;;;;;;8.93;5.20;;;;;;;-147.65;100.00;57646.63;10458742;28;20492;-77
2023/09/11 16:07:23;;;;;;;11.90;6.13;;;;;;;-147.65;100.00;57646.63;10474927;28;20037;-77
2023/09/11 16:12:23;;;;;;;12.97;5.90;;;;;;;-147.65;100.00;57646.63;10469861;28;20107;-76
2023/09/11 16:17:24;;;;;;;9.87;5.57;;;;;;;-147.65;100.00;57646.63;10507344;28;20044;-77
2023/09/11 16:22:24;;;;;;;13.70;6.13;;;;;;;-147.65;100.00;57646.63;10477143;28;20037;-76
2023/09/11 16:27:26;;;;;;;13.87;6.40;;;;;;;-147.65;100.00;57646.63;10463000;28;20052;-76
2023/09/11 16:32:26;;;;;;;6.32;4.82;;;;;;;-147.65;100.00;57646.63;10463911;28;20040;-77
2023/09/11 16:37:27;;;;;;;10.83;5.40;;;;;;;-147.65;100.00;57646.63;10472396;28;20047;-76
2023/09/11 16:42:28;;;;;;;7.07;5.13;;;;;;;-147.65;100.00;57646.63;10457810;28;20040;-76
2023/09/11 16:47:29;;;;;;;11.50;5.38;;;;;;;-147.65;100.00;57646.63;10430635;28;20495;-77
2023/09/11 16:52:30;;;;;;;;;;;;;;;-147.65;100.00;57646.63;10378078;28;20038;-76
2023/09/11 16:57:30;;;;;;;13.57;5.00;;;;;;;-147.65;100.00;57646.63;10433824;28;19944;-75
2023/09/11 17:02:32;;;;;;;12.73;6.27;;;;;;;-147.65;100.00;57646.63;10394315;28;20040;-75
2023/09/11 17:07:33;;;;;;;12.05;6.03;;;;;;;-147.65;100.00;57646.63;10456629;28;20488;-75
2023/09/11 17:12:34;;;;;;;11.63;6.53;;;;;;;-147.65;100.00;57646.63;10455615;28;20033;-75
2023/09/11 17:17:35;;;;;;;7.40;5.23;;;;;;;-147.65;100.00;57646.63;10450569;28;20037;-75
2023/09/11 17:22:36;;;;;;;17.48;9.30;;;;;;;-147.65;100.00;57646.63;10444006;28;20044;-74
2023/09/11 17:27:36;;;;;;;13.87;7.73;;;;;;;-147.65;100.00;57646.63;10430445;28;20097;-75
2023/09/11 17:32:39;;;;;;;14.03;9.27;;;;;;;-147.65;100.00;57646.63;10454511;28;20132;-75
2023/09/11 17:37:39;;;;;;;17.75;10.15;;;;;;;-147.65;100.00;57646.63;10462342;28;20124;-75
2023/09/11 17:42:40;;;;;;;24.57;12.57;;;;;;;-147.65;100.00;57646.63;10499744;28;20059;-75
2023/09/11 17:47:42;;;;;;;17.73;9.97;;;;;;;-147.65;100.00;57646.63;10438372;28;20037;-75
2023/09/11 17:52:42;;;;;;;19.90;11.13;;;;;;;-147.65;100.00;57646.63;10460928;28;20045;-75
2023/09/11 17:57:43;;;;;;;25.47;13.67;;;;;;;-147.65;100.00;57646.63;10467882;28;20033;-75
2023/09/11 18:02:44;;;;;;;19.57;8.80;;;;;;;-147.65;100.00;57646.63;10477707;28;20032;-76
2023/09/11 18:07:44;;;;;;;11.13;9.30;;;;;;;-147.65;100.00;57646.63;10461191;28;20526;-76
2023/09/11 18:12:45;;;;;;;23.43;11.07;;;;;;;-147.65;100.00;57646.63;10501641;28;20102;-77
2023/09/11 18:17:45;;;;;;;13.53;8.37;;;;;;;-147.65;100.00;57646.63;10461727;28;22372;-76
2023/09/11 18:22:46;;;;;;;15.27;7.80;;;;;;;-147.65;100.00;57646.63;10486427;28;20036;-76
2023/09/11 18:27:46;;;;;;;10.10;8.17;;;;;;;-147.65;100.00;57646.63;10477791;28;20040;-77
2023/09/11 18:32:47;;;;;;;18.27;8.50;;;;;;;-147.65;100.00;57646.63;10467639;28;20516;-77
2023/09/11 18:37:50;;;;;;;15.00;10.63;;;;;;;-147.65;100.00;57646.63;10477484;28;20510;-77
2023/09/11 18:42:50;;;;;;;17.00;8.50;;;;;;;-147.65;100.00;57646.63;10499390;28;20075;-77
2023/09/11 18:47:53;;;;;;;13.07;9.30;;;;;;;-147.65;100.00;57646.63;10439192;28;20037;-77
2023/09/11 18:52:54;;;;;;;21.83;10.10;;;;;;;-147.65;100.00;57646.63;10484714;28;20519;-77
2023/09/11 18:57:54;;;;;;;17.97;14.07;;;;;;;-147.65;100.00;57646.63;10460488;28;20124;-77
2023/09/11 19:02:55;;;;;;;12.97;8.93;;;;;;;-147.65;100.00;57646.63;10479949;28;20078;-78
2023/09/11 19:07:56;;;;;;;14.40;8.90;;;;;;;-147.65;100.00;57646.63;10472382;28;20441;-77
2023/09/11 19:12:56;;;;;;;11.27;8.77;;;;;;;-147.65;100.00;57646.63;10463922;28;20044;-77
2023/09/11 19:17:58;;;;;;;16.63;11.80;;;;;;;-147.65;100.00;57646.63;10492570;28;20127;-78
2023/09/11 19:22:59;;;;;;;21.75;11.75;;;;;;;-147.65;100.00;57646.63;10464496;28;20032;-77
2023/09/11 19:27:59;;;;;;;22.50;10.27;;;;;;;-147.65;100.00;57646.63;10480090;28;20071;-77
2023/09/11 19:33:00;;;;;;;13.83;9.90;;;;;;;-147.65;100.00;57646.63;10451823;28;20037;-79
2023/09/11 19:38:00;;;;;;;19.23;10.73;;;;;;;-147.65;100.00;57646.63;10477087;28;20032;-77
2023/09/11 19:43:02;;;;;;;46.40;13.50;;;;;;;-147.65;100.00;57646.63;10451295;28;20121;-78
2023/09/11 19:48:04;;;;;;;16.17;10.25;;;;;;;-147.65;100.00;57646.63;10464388;28;20484;-79
2023/09/11 19:53:04;;;;;;;16.38;10.80;;;;;;;-147.65;100.00;57646.63;10468838;28;20101;-79
2023/09/11 19:58:05;;;;;;;21.17;10.67;;;;;;;-147.65;100.00;57646.63;10447350;28;20040;-79
2023/09/11 20:03:07;;;;;;;13.60;10.52;;;;;;;-147.65;100.00;57646.63;10459917;28;20049;-79
2023/09/11 20:08:08;;;;;;;17.13;11.50;;;;;;;-147.65;100.00;57646.63;10444764;28;20048;-78
2023/09/11 20:13:08;;;;;;;21.77;11.35;;;;;;;-147.65;100.00;57646.63;10466780;28;20035;-78
2023/09/11 20:18:09;;;;;;;19.17;11.48;;;;;;;-147.65;100.00;57646.63;10455587;28;20040;-78
2023/09/11 20:23:10;;;;;;;18.02;10.60;;;;;;;-147.65;100.00;57646.63;10463965;28;20044;-78
2023/09/11 20:28:11;;;;;;;20.48;12.13;;;;;;;-147.65;100.00;57646.63;10483065;28;20048;-78
2023/09/11 20:33:11;;;;;;;18.35;10.93;;;;;;;-147.65;100.00;57646.63;10508795;28;20044;-79
2023/09/11 20:38:12;;;;;;;13.45;10.00;;;;;;;-147.65;100.00;57646.63;10481276;28;20169;-79
2023/09/11 20:43:13;;;;;;;15.13;10.10;;;;;;;-147.65;100.00;57646.63;10473669;28;20114;-79
2023/09/11 20:48:13;;;;;;;16.23;7.93;;;;;;;-147.65;100.00;57646.63;10458212;28;20048;-79
2023/09/11 20:53:14;;;;;;;12.55;8.77;;;;;;;-147.65;100.00;57646.63;10463103;28;20033;-79
2023/09/11 20:58:14;;;;;;;12.00;7.43;;;;;;;-147.65;100.00;57646.63;10461929;28;20540;-79
2023/09/11 21:03:15;;;;;;;13.63;8.18;;;;;;;-147.65;100.00;57646.63;10461511;28;20093;-79
2023/09/11 21:08:16;;;;;;;15.48;8.05;;;;;;;-147.65;100.00;57646.63;10465823;28;20468;-79
2023/09/11 21:13:19;;;;;;;16.98;8.23;;;;;;;-147.65;100.00;57646.63;10481996;28;20041;-79
2023/09/11 21:18:22;;;;;;;13.52;8.20;;;;;;;-147.65;100.00;57646.63;10481821;28;20040;-79
2023/09/11 21:23:25;;;;;;;11.85;7.72;;;;;;;-147.65;100.00;57646.63;10470227;28;20048;-78
2023/09/11 21:28:27;;;;;;;;;;;;;;;-147.65;100.00;57646.63;10471619;28;20378;-78
2023/09/11 21:33:28;;;;;;;11.60;7.20;;;;;;;-147.65;100.00;57646.63;10474465;28;19931;-78
2023/09/11 21:38:28;;;;;;;11.55;7.30;;;;;;;-147.65;100.00;57646.63;10465530;28;20141;-78
2023/09/11 21:43:29;;;;;;;13.15;7.25;;;;;;;-147.65;100.00;57646.63;10469388;28;20543;-78
2023/09/11 21:48:30;;;;;;;18.55;9.63;;;;;;;-147.65;100.00;57646.63;10488768;27;20036;-78
2023/09/11 21:53:30;;;;;;;18.30;14.18;;;;;;;-147.65;100.00;57646.63;10466458;28;20095;-79
2023/09/11 21:58:31;;;;;;;22.33;12.68;;;;;;;-147.65;100.00;57646.63;10469391;28;20037;-78
2023/09/11 22:03:31;;;;;;;21.38;14.75;;;;;;;-147.65;100.00;57646.63;10472056;28;20059;-78
2023/09/11 22:08:32;;;;;;;18.00;11.93;;;;;;;-147.65;100.00;57646.63;10488817;28;20090;-78
2023/09/11 22:13:32;;;;;;;21.58;13.00;;;;;;;-147.65;100.00;57646.63;10467796;28;20033;-79
2023/09/11 22:18:33;;;;;;;16.60;11.77;;;;;;;-147.65;100.00;57646.63;10441336;27;20049;-80